Terminal Aerodrome Forecast
Issued by NWS

Home | Current Version | Previous Version | Text Only | Print | Product List | Glossary On
Versions: 1 2 3 4 5 6 7 8 9 10 11 12 13
000
FTUS41 KAKQ 271732
TAFPHF
TAF
KPHF 271732Z 2718/2818 21010KT P6SM SCT045 BKN150
     FM272000 22008KT P6SM VCTS BKN045CB
     FM280300 22008KT P6SM BKN060
     FM281000 24007KT P6SM OVC030
     FM281300 24007KT P6SM OVC035
     FM281600 23008KT P6SM -SHRA OVC050=

USA.gov is the U.S. government's official web portal to all federal, state and local government web resources and services.